sensor_id;sensor_type;location;lat;lon;timestamp;P1;durP1;ratioP1;P2;durP2;ratioP2
18651;SDS011;9455;54.302;10.124;2022-12-29T00:00:07;2.23;;;2.13;;
18651;SDS011;9455;54.302;10.124;2022-12-29T00:02:36;2.50;;;2.30;;
18651;SDS011;9455;54.302;10.124;2022-12-29T00:05:02;2.30;;;2.20;;
18651;SDS011;9455;54.302;10.124;2022-12-29T00:07:31;4.50;;;2.97;;
18651;SDS011;9455;54.302;10.124;2022-12-29T00:09:58;9.50;;;5.13;;
18651;SDS011;9455;54.302;10.124;2022-12-29T00:12:24;20.07;;;7.43;;
18651;SDS011;9455;54.302;10.124;2022-12-29T00:15:11;4.10;;;2.30;;
18651;SDS011;9455;54.302;10.124;2022-12-29T00:17:55;3.37;;;2.80;;
18651;SDS011;9455;54.302;10.124;2022-12-29T00:20:21;2.70;;;2.60;;
18651;SDS011;9455;54.302;10.124;2022-12-29T00:23:08;3.40;;;3.10;;
18651;SDS011;9455;54.302;10.124;2022-12-29T00:25:52;4.43;;;3.20;;
18651;SDS011;9455;54.302;10.124;2022-12-29T00:28:36;3.10;;;2.90;;
18651;SDS011;9455;54.302;10.124;2022-12-29T00:31:20;3.17;;;3.00;;
18651;SDS011;9455;54.302;10.124;2022-12-29T00:34:04;5.33;;;2.87;;
18651;SDS011;9455;54.302;10.124;2022-12-29T00:36:51;3.47;;;3.00;;
18651;SDS011;9455;54.302;10.124;2022-12-29T00:39:19;3.83;;;2.83;;
18651;SDS011;9455;54.302;10.124;2022-12-29T00:42:03;4.57;;;3.20;;
18651;SDS011;9455;54.302;10.124;2022-12-29T00:44:47;3.80;;;3.50;;
18651;SDS011;9455;54.302;10.124;2022-12-29T00:47:14;3.33;;;3.10;;
18651;SDS011;9455;54.302;10.124;2022-12-29T00:49:41;8.87;;;3.73;;
18651;SDS011;9455;54.302;10.124;2022-12-29T00:52:07;3.90;;;3.57;;
18651;SDS011;9455;54.302;10.124;2022-12-29T00:54:37;3.37;;;3.17;;
18651;SDS011;9455;54.302;10.124;2022-12-29T00:57:06;12.57;;;3.27;;
18651;SDS011;9455;54.302;10.124;2022-12-29T00:59:34;4.17;;;3.83;;
18651;SDS011;9455;54.302;10.124;2022-12-29T01:02:01;4.53;;;3.97;;
18651;SDS011;9455;54.302;10.124;2022-12-29T01:04:28;5.93;;;4.20;;
18651;SDS011;9455;54.302;10.124;2022-12-29T01:06:55;3.87;;;3.57;;
18651;SDS011;9455;54.302;10.124;2022-12-29T01:09:21;6.33;;;4.33;;
18651;SDS011;9455;54.302;10.124;2022-12-29T01:12:07;4.63;;;3.30;;
18651;SDS011;9455;54.302;10.124;2022-12-29T01:14:35;5.10;;;4.13;;
18651;SDS011;9455;54.302;10.124;2022-12-29T01:17:02;4.67;;;4.33;;
18651;SDS011;9455;54.302;10.124;2022-12-29T01:19:30;5.73;;;4.30;;
18651;SDS011;9455;54.302;10.124;2022-12-29T01:21:56;4.23;;;3.63;;
18651;SDS011;9455;54.302;10.124;2022-12-29T01:24:23;6.17;;;4.33;;
18651;SDS011;9455;54.302;10.124;2022-12-29T01:26:51;5.60;;;4.40;;
18651;SDS011;9455;54.302;10.124;2022-12-29T01:29:20;5.83;;;4.10;;
18651;SDS011;9455;54.302;10.124;2022-12-29T01:31:47;7.83;;;4.70;;
18651;SDS011;9455;54.302;10.124;2022-12-29T01:34:14;6.13;;;4.80;;
18651;SDS011;9455;54.302;10.124;2022-12-29T01:36:41;7.37;;;5.00;;
18651;SDS011;9455;54.302;10.124;2022-12-29T01:39:07;5.77;;;5.17;;
18651;SDS011;9455;54.302;10.124;2022-12-29T01:41:34;4.90;;;4.50;;
18651;SDS011;9455;54.302;10.124;2022-12-29T01:44:00;5.47;;;4.93;;
18651;SDS011;9455;54.302;10.124;2022-12-29T01:46:29;5.20;;;4.60;;
18651;SDS011;9455;54.302;10.124;2022-12-29T01:48:59;8.10;;;4.97;;
18651;SDS011;9455;54.302;10.124;2022-12-29T01:51:31;5.90;;;4.60;;
18651;SDS011;9455;54.302;10.124;2022-12-29T01:54:02;5.03;;;4.53;;
18651;SDS011;9455;54.302;10.124;2022-12-29T01:56:33;3.93;;;3.70;;
18651;SDS011;9455;54.302;10.124;2022-12-29T01:59:01;5.20;;;4.37;;
18651;SDS011;9455;54.302;10.124;2022-12-29T02:01:32;5.03;;;4.63;;
18651;SDS011;9455;54.302;10.124;2022-12-29T02:03:59;6.00;;;4.73;;
18651;SDS011;9455;54.302;10.124;2022-12-29T02:06:27;8.43;;;5.37;;
18651;SDS011;9455;54.302;10.124;2022-12-29T02:08:58;4.00;;;3.70;;
18651;SDS011;9455;54.302;10.124;2022-12-29T02:11:25;4.97;;;4.57;;
18651;SDS011;9455;54.302;10.124;2022-12-29T02:13:54;5.77;;;4.17;;
18651;SDS011;9455;54.302;10.124;2022-12-29T02:16:26;4.77;;;4.30;;
18651;SDS011;9455;54.302;10.124;2022-12-29T02:19:04;7.67;;;4.60;;
18651;SDS011;9455;54.302;10.124;2022-12-29T02:21:53;8.87;;;4.77;;
18651;SDS011;9455;54.302;10.124;2022-12-29T02:24:45;4.30;;;3.80;;
18651;SDS011;9455;54.302;10.124;2022-12-29T02:27:40;5.80;;;4.37;;
18651;SDS011;9455;54.302;10.124;2022-12-29T02:33:24;7.63;;;4.77;;
18651;SDS011;9455;54.302;10.124;2022-12-29T02:36:06;7.37;;;4.80;;
18651;SDS011;9455;54.302;10.124;2022-12-29T02:38:43;5.17;;;4.67;;
18651;SDS011;9455;54.302;10.124;2022-12-29T02:41:19;7.30;;;4.83;;
18651;SDS011;9455;54.302;10.124;2022-12-29T02:43:50;7.63;;;4.93;;
18651;SDS011;9455;54.302;10.124;2022-12-29T02:46:26;5.20;;;4.70;;
18651;SDS011;9455;54.302;10.124;2022-12-29T02:49:02;8.53;;;4.87;;
18651;SDS011;9455;54.302;10.124;2022-12-29T02:51:34;5.07;;;4.57;;
18651;SDS011;9455;54.302;10.124;2022-12-29T02:54:06;4.80;;;4.30;;
18651;SDS011;9455;54.302;10.124;2022-12-29T02:56:50;5.73;;;4.50;;
18651;SDS011;9455;54.302;10.124;2022-12-29T02:59:16;4.97;;;4.47;;
18651;SDS011;9455;54.302;10.124;2022-12-29T03:01:53;5.43;;;4.93;;
18651;SDS011;9455;54.302;10.124;2022-12-29T03:04:51;7.03;;;4.80;;
18651;SDS011;9455;54.302;10.124;2022-12-29T03:07:32;6.43;;;4.93;;
18651;SDS011;9455;54.302;10.124;2022-12-29T03:10:08;6.93;;;5.13;;
18651;SDS011;9455;54.302;10.124;2022-12-29T03:12:45;7.23;;;4.50;;
18651;SDS011;9455;54.302;10.124;2022-12-29T03:15:36;11.53;;;5.07;;
18651;SDS011;9455;54.302;10.124;2022-12-29T03:18:32;5.83;;;4.87;;
18651;SDS011;9455;54.302;10.124;2022-12-29T03:21:07;6.40;;;5.23;;
18651;SDS011;9455;54.302;10.124;2022-12-29T03:23:37;5.77;;;5.03;;
18651;SDS011;9455;54.302;10.124;2022-12-29T03:26:07;5.73;;;5.13;;
18651;SDS011;9455;54.302;10.124;2022-12-29T03:28:38;10.43;;;4.83;;
18651;SDS011;9455;54.302;10.124;2022-12-29T03:31:08;5.53;;;4.63;;
18651;SDS011;9455;54.302;10.124;2022-12-29T03:33:38;7.23;;;4.87;;
18651;SDS011;9455;54.302;10.124;2022-12-29T03:36:09;5.23;;;4.73;;
18651;SDS011;9455;54.302;10.124;2022-12-29T03:38:43;5.83;;;5.23;;
18651;SDS011;9455;54.302;10.124;2022-12-29T03:41:14;5.47;;;4.97;;
18651;SDS011;9455;54.302;10.124;2022-12-29T03:43:45;4.80;;;4.30;;
18651;SDS011;9455;54.302;10.124;2022-12-29T03:46:11;4.93;;;4.43;;
18651;SDS011;9455;54.302;10.124;2022-12-29T03:48:39;5.23;;;4.70;;
18651;SDS011;9455;54.302;10.124;2022-12-29T03:51:06;5.13;;;4.70;;
18651;SDS011;9455;54.302;10.124;2022-12-29T03:53:32;6.63;;;4.73;;
18651;SDS011;9455;54.302;10.124;2022-12-29T03:55:59;8.07;;;5.10;;
18651;SDS011;9455;54.302;10.124;2022-12-29T03:58:26;5.73;;;4.83;;
18651;SDS011;9455;54.302;10.124;2022-12-29T04:00:52;5.07;;;4.67;;
18651;SDS011;9455;54.302;10.124;2022-12-29T04:03:19;6.77;;;4.97;;
18651;SDS011;9455;54.302;10.124;2022-12-29T04:05:47;6.63;;;4.70;;
18651;SDS011;9455;54.302;10.124;2022-12-29T04:08:13;5.07;;;4.57;;
18651;SDS011;9455;54.302;10.124;2022-12-29T04:10:40;5.97;;;5.37;;
18651;SDS011;9455;54.302;10.124;2022-12-29T04:13:06;5.50;;;5.00;;
18651;SDS011;9455;54.302;10.124;2022-12-29T04:15:33;6.47;;;4.87;;
18651;SDS011;9455;54.302;10.124;2022-12-29T04:18:00;7.57;;;4.90;;
18651;SDS011;9455;54.302;10.124;2022-12-29T04:20:26;6.60;;;4.87;;
18651;SDS011;9455;54.302;10.124;2022-12-29T04:23:12;6.10;;;4.70;;
18651;SDS011;9455;54.302;10.124;2022-12-29T04:25:38;5.53;;;4.83;;
18651;SDS011;9455;54.302;10.124;2022-12-29T04:28:05;7.97;;;5.07;;
18651;SDS011;9455;54.302;10.124;2022-12-29T04:30:32;5.90;;;5.40;;
18651;SDS011;9455;54.302;10.124;2022-12-29T04:32:59;10.40;;;4.57;;
18651;SDS011;9455;54.302;10.124;2022-12-29T04:35:26;7.87;;;5.00;;
18651;SDS011;9455;54.302;10.124;2022-12-29T04:37:52;8.73;;;5.10;;
18651;SDS011;9455;54.302;10.124;2022-12-29T04:40:20;5.40;;;4.77;;
18651;SDS011;9455;54.302;10.124;2022-12-29T04:42:48;5.97;;;5.07;;
18651;SDS011;9455;54.302;10.124;2022-12-29T04:45:15;5.77;;;4.90;;
18651;SDS011;9455;54.302;10.124;2022-12-29T04:47:42;5.33;;;4.70;;
18651;SDS011;9455;54.302;10.124;2022-12-29T04:50:09;4.50;;;4.10;;
18651;SDS011;9455;54.302;10.124;2022-12-29T04:52:36;5.13;;;4.63;;
18651;SDS011;9455;54.302;10.124;2022-12-29T04:55:03;8.00;;;4.33;;
18651;SDS011;9455;54.302;10.124;2022-12-29T04:57:31;4.13;;;3.83;;
18651;SDS011;9455;54.302;10.124;2022-12-29T04:59:58;4.27;;;3.97;;
18651;SDS011;9455;54.302;10.124;2022-12-29T05:02:25;7.23;;;4.63;;
18651;SDS011;9455;54.302;10.124;2022-12-29T05:04:51;5.90;;;5.10;;
18651;SDS011;9455;54.302;10.124;2022-12-29T05:07:18;5.03;;;4.53;;
18651;SDS011;9455;54.302;10.124;2022-12-29T05:09:44;4.13;;;3.83;;
18651;SDS011;9455;54.302;10.124;2022-12-29T05:12:11;4.60;;;4.20;;
18651;SDS011;9455;54.302;10.124;2022-12-29T05:14:39;5.10;;;4.60;;
18651;SDS011;9455;54.302;10.124;2022-12-29T05:17:06;6.00;;;4.90;;
18651;SDS011;9455;54.302;10.124;2022-12-29T05:19:32;4.73;;;4.07;;
18651;SDS011;9455;54.302;10.124;2022-12-29T05:21:59;13.80;;;5.13;;
18651;SDS011;9455;54.302;10.124;2022-12-29T05:24:26;8.83;;;5.33;;
18651;SDS011;9455;54.302;10.124;2022-12-29T05:26:52;27.50;;;11.17;;
18651;SDS011;9455;54.302;10.124;2022-12-29T05:29:19;5.93;;;4.90;;
18651;SDS011;9455;54.302;10.124;2022-12-29T05:31:47;4.73;;;4.00;;
18651;SDS011;9455;54.302;10.124;2022-12-29T05:34:13;5.47;;;3.80;;
18651;SDS011;9455;54.302;10.124;2022-12-29T05:36:40;4.17;;;3.87;;
18651;SDS011;9455;54.302;10.124;2022-12-29T05:39:07;6.60;;;3.50;;
18651;SDS011;9455;54.302;10.124;2022-12-29T05:41:33;3.90;;;3.60;;
18651;SDS011;9455;54.302;10.124;2022-12-29T05:44:00;4.73;;;4.00;;
18651;SDS011;9455;54.302;10.124;2022-12-29T05:46:27;4.13;;;3.83;;
18651;SDS011;9455;54.302;10.124;2022-12-29T05:48:55;5.13;;;4.23;;
18651;SDS011;9455;54.302;10.124;2022-12-29T05:51:22;3.50;;;3.23;;
18651;SDS011;9455;54.302;10.124;2022-12-29T05:53:48;3.53;;;3.23;;
18651;SDS011;9455;54.302;10.124;2022-12-29T05:56:15;3.43;;;3.20;;
18651;SDS011;9455;54.302;10.124;2022-12-29T05:58:41;3.50;;;3.30;;
18651;SDS011;9455;54.302;10.124;2022-12-29T06:01:08;3.80;;;3.20;;
18651;SDS011;9455;54.302;10.124;2022-12-29T06:03:35;2.77;;;2.67;;
18651;SDS011;9455;54.302;10.124;2022-12-29T06:06:03;2.50;;;2.40;;
18651;SDS011;9455;54.302;10.124;2022-12-29T06:08:30;5.37;;;2.23;;
18651;SDS011;9455;54.302;10.124;2022-12-29T06:10:56;2.57;;;2.47;;
18651;SDS011;9455;54.302;10.124;2022-12-29T06:13:23;2.03;;;1.97;;
18651;SDS011;9455;54.302;10.124;2022-12-29T06:15:50;2.67;;;2.47;;
18651;SDS011;9455;54.302;10.124;2022-12-29T06:18:17;11.43;;;2.10;;
18651;SDS011;9455;54.302;10.124;2022-12-29T06:20:43;2.30;;;2.20;;
18651;SDS011;9455;54.302;10.124;2022-12-29T06:23:11;2.20;;;2.10;;
18651;SDS011;9455;54.302;10.124;2022-12-29T06:25:38;1.53;;;1.53;;
18651;SDS011;9455;54.302;10.124;2022-12-29T06:28:04;2.23;;;2.03;;
18651;SDS011;9455;54.302;10.124;2022-12-29T06:30:31;2.13;;;2.00;;
18651;SDS011;9455;54.302;10.124;2022-12-29T06:32:58;3.57;;;2.20;;
18651;SDS011;9455;54.302;10.124;2022-12-29T06:35:25;3.83;;;1.80;;
18651;SDS011;9455;54.302;10.124;2022-12-29T06:37:51;7.47;;;3.30;;
18651;SDS011;9455;54.302;10.124;2022-12-29T06:40:19;2.07;;;1.97;;
18651;SDS011;9455;54.302;10.124;2022-12-29T06:42:46;2.00;;;1.90;;
18651;SDS011;9455;54.302;10.124;2022-12-29T06:45:13;2.27;;;2.17;;
18651;SDS011;9455;54.302;10.124;2022-12-29T06:47:40;1.97;;;1.87;;
18651;SDS011;9455;54.302;10.124;2022-12-29T06:50:06;2.00;;;1.90;;
18651;SDS011;9455;54.302;10.124;2022-12-29T06:52:34;4.10;;;2.70;;
18651;SDS011;9455;54.302;10.124;2022-12-29T06:55:00;2.37;;;2.13;;
18651;SDS011;9455;54.302;10.124;2022-12-29T06:57:28;2.37;;;2.27;;
18651;SDS011;9455;54.302;10.124;2022-12-29T06:59:55;2.07;;;1.97;;
18651;SDS011;9455;54.302;10.124;2022-12-29T07:02:22;2.30;;;2.20;;
18651;SDS011;9455;54.302;10.124;2022-12-29T07:04:50;2.23;;;2.10;;
18651;SDS011;9455;54.302;10.124;2022-12-29T07:07:17;2.70;;;2.50;;
18651;SDS011;9455;54.302;10.124;2022-12-29T07:09:43;2.23;;;2.13;;
18651;SDS011;9455;54.302;10.124;2022-12-29T07:12:11;2.53;;;2.37;;
18651;SDS011;9455;54.302;10.124;2022-12-29T07:14:39;2.80;;;2.60;;
18651;SDS011;9455;54.302;10.124;2022-12-29T07:17:06;2.23;;;2.13;;
18651;SDS011;9455;54.302;10.124;2022-12-29T07:19:32;2.30;;;2.20;;
18651;SDS011;9455;54.302;10.124;2022-12-29T07:21:59;2.60;;;2.50;;
18651;SDS011;9455;54.302;10.124;2022-12-29T07:24:26;1.77;;;1.70;;
18651;SDS011;9455;54.302;10.124;2022-12-29T07:26:53;2.27;;;2.17;;
18651;SDS011;9455;54.302;10.124;2022-12-29T07:29:19;1.60;;;1.50;;
18651;SDS011;9455;54.302;10.124;2022-12-29T07:31:47;2.93;;;1.73;;
18651;SDS011;9455;54.302;10.124;2022-12-29T07:34:14;5.43;;;2.17;;
18651;SDS011;9455;54.302;10.124;2022-12-29T07:36:40;2.63;;;2.27;;
18651;SDS011;9455;54.302;10.124;2022-12-29T07:39:07;1.50;;;1.50;;
18651;SDS011;9455;54.302;10.124;2022-12-29T07:41:34;1.73;;;1.60;;
18651;SDS011;9455;54.302;10.124;2022-12-29T07:44:00;1.63;;;1.53;;
18651;SDS011;9455;54.302;10.124;2022-12-29T07:46:27;4.67;;;1.90;;
18651;SDS011;9455;54.302;10.124;2022-12-29T07:48:55;1.40;;;1.40;;
18651;SDS011;9455;54.302;10.124;2022-12-29T07:51:22;4.00;;;1.30;;
18651;SDS011;9455;54.302;10.124;2022-12-29T07:53:48;1.33;;;1.30;;
18651;SDS011;9455;54.302;10.124;2022-12-29T07:56:15;3.37;;;1.20;;
18651;SDS011;9455;54.302;10.124;2022-12-29T07:58:42;1.23;;;1.23;;
18651;SDS011;9455;54.302;10.124;2022-12-29T08:01:08;1.40;;;0.87;;
18651;SDS011;9455;54.302;10.124;2022-12-29T08:03:35;1.57;;;1.50;;
18651;SDS011;9455;54.302;10.124;2022-12-29T08:06:04;5.97;;;1.10;;
18651;SDS011;9455;54.302;10.124;2022-12-29T08:08:31;1.50;;;1.43;;
18651;SDS011;9455;54.302;10.124;2022-12-29T08:10:57;1.77;;;1.20;;
18651;SDS011;9455;54.302;10.124;2022-12-29T08:13:24;1.93;;;1.73;;
18651;SDS011;9455;54.302;10.124;2022-12-29T08:15:51;1.37;;;0.90;;
18651;SDS011;9455;54.302;10.124;2022-12-29T08:18:17;4.17;;;1.10;;
18651;SDS011;9455;54.302;10.124;2022-12-29T08:20:44;2.67;;;0.70;;
18651;SDS011;9455;54.302;10.124;2022-12-29T08:23:12;4.70;;;0.63;;
18651;SDS011;9455;54.302;10.124;2022-12-29T08:25:38;2.07;;;1.20;;
18651;SDS011;9455;54.302;10.124;2022-12-29T08:28:05;2.37;;;0.73;;
18651;SDS011;9455;54.302;10.124;2022-12-29T08:30:31;1.33;;;0.70;;
18651;SDS011;9455;54.302;10.124;2022-12-29T08:32:58;0.87;;;0.87;;
18651;SDS011;9455;54.302;10.124;2022-12-29T08:35:25;1.10;;;1.07;;
18651;SDS011;9455;54.302;10.124;2022-12-29T08:37:51;2.50;;;1.03;;
18651;SDS011;9455;54.302;10.124;2022-12-29T08:40:20;3.40;;;1.37;;
18651;SDS011;9455;54.302;10.124;2022-12-29T08:42:46;1.23;;;0.80;;
18651;SDS011;9455;54.302;10.124;2022-12-29T08:45:13;6.20;;;2.33;;
18651;SDS011;9455;54.302;10.124;2022-12-29T08:47:40;3.57;;;1.33;;
18651;SDS011;9455;54.302;10.124;2022-12-29T08:50:07;1.53;;;1.40;;
18651;SDS011;9455;54.302;10.124;2022-12-29T08:52:34;6.23;;;1.20;;
18651;SDS011;9455;54.302;10.124;2022-12-29T08:55:00;3.50;;;0.80;;
18651;SDS011;9455;54.302;10.124;2022-12-29T08:57:28;1.60;;;0.93;;
18651;SDS011;9455;54.302;10.124;2022-12-29T08:59:55;1.53;;;1.53;;
18651;SDS011;9455;54.302;10.124;2022-12-29T09:02:21;1.53;;;1.00;;
18651;SDS011;9455;54.302;10.124;2022-12-29T09:04:48;3.47;;;3.10;;
18651;SDS011;9455;54.302;10.124;2022-12-29T09:07:15;3.40;;;1.80;;
18651;SDS011;9455;54.302;10.124;2022-12-29T09:09:41;1.60;;;0.97;;
18651;SDS011;9455;54.302;10.124;2022-12-29T09:12:08;8.00;;;3.00;;
18651;SDS011;9455;54.302;10.124;2022-12-29T09:14:36;2.70;;;1.00;;
18651;SDS011;9455;54.302;10.124;2022-12-29T09:17:02;4.33;;;1.30;;
18651;SDS011;9455;54.302;10.124;2022-12-29T09:19:47;1.73;;;1.10;;
18651;SDS011;9455;54.302;10.124;2022-12-29T09:22:13;1.20;;;1.10;;
18651;SDS011;9455;54.302;10.124;2022-12-29T09:24:40;1.23;;;1.07;;
18651;SDS011;9455;54.302;10.124;2022-12-29T09:27:06;1.47;;;1.07;;
18651;SDS011;9455;54.302;10.124;2022-12-29T09:29:33;3.90;;;1.30;;
18651;SDS011;9455;54.302;10.124;2022-12-29T09:32:01;1.97;;;0.80;;
18651;SDS011;9455;54.302;10.124;2022-12-29T09:34:28;4.23;;;1.63;;
18651;SDS011;9455;54.302;10.124;2022-12-29T09:36:54;2.47;;;0.90;;
18651;SDS011;9455;54.302;10.124;2022-12-29T09:39:21;8.17;;;1.40;;
18651;SDS011;9455;54.302;10.124;2022-12-29T09:41:49;5.53;;;1.30;;
18651;SDS011;9455;54.302;10.124;2022-12-29T09:44:29;4.03;;;1.10;;
18651;SDS011;9455;54.302;10.124;2022-12-29T09:47:07;6.93;;;1.00;;
18651;SDS011;9455;54.302;10.124;2022-12-29T09:49:40;5.93;;;1.03;;
18651;SDS011;9455;54.302;10.124;2022-12-29T09:52:12;9.53;;;1.00;;
18651;SDS011;9455;54.302;10.124;2022-12-29T09:54:42;5.97;;;1.30;;
18651;SDS011;9455;54.302;10.124;2022-12-29T09:57:18;4.43;;;2.20;;
18651;SDS011;9455;54.302;10.124;2022-12-29T09:59:48;10.43;;;1.53;;
18651;SDS011;9455;54.302;10.124;2022-12-29T10:02:26;8.50;;;1.43;;
18651;SDS011;9455;54.302;10.124;2022-12-29T10:04:58;6.80;;;1.00;;
18651;SDS011;9455;54.302;10.124;2022-12-29T10:07:27;8.37;;;2.13;;
18651;SDS011;9455;54.302;10.124;2022-12-29T10:10:05;10.03;;;1.40;;
18651;SDS011;9455;54.302;10.124;2022-12-29T10:15:39;5.37;;;1.50;;
18651;SDS011;9455;54.302;10.124;2022-12-29T10:18:18;6.60;;;1.50;;
18651;SDS011;9455;54.302;10.124;2022-12-29T10:20:55;9.50;;;1.13;;
18651;SDS011;9455;54.302;10.124;2022-12-29T10:23:26;2.40;;;1.17;;
18651;SDS011;9455;54.302;10.124;2022-12-29T10:25:56;6.23;;;1.07;;
18651;SDS011;9455;54.302;10.124;2022-12-29T10:28:24;6.00;;;1.43;;
18651;SDS011;9455;54.302;10.124;2022-12-29T10:31:01;5.87;;;1.23;;
18651;SDS011;9455;54.302;10.124;2022-12-29T10:33:35;6.73;;;1.07;;
18651;SDS011;9455;54.302;10.124;2022-12-29T10:36:04;3.97;;;1.53;;
18651;SDS011;9455;54.302;10.124;2022-12-29T10:38:40;5.27;;;0.90;;
18651;SDS011;9455;54.302;10.124;2022-12-29T10:41:15;5.80;;;1.73;;
18651;SDS011;9455;54.302;10.124;2022-12-29T10:43:47;5.60;;;1.47;;
18651;SDS011;9455;54.302;10.124;2022-12-29T10:46:17;10.43;;;1.67;;
18651;SDS011;9455;54.302;10.124;2022-12-29T10:48:48;2.47;;;1.30;;
18651;SDS011;9455;54.302;10.124;2022-12-29T10:51:17;7.43;;;1.00;;
18651;SDS011;9455;54.302;10.124;2022-12-29T10:53:48;0.93;;;0.80;;
18651;SDS011;9455;54.302;10.124;2022-12-29T10:56:22;5.17;;;1.00;;
18651;SDS011;9455;54.302;10.124;2022-12-29T10:58:57;3.60;;;0.90;;
18651;SDS011;9455;54.302;10.124;2022-12-29T11:01:30;2.30;;;0.80;;
18651;SDS011;9455;54.302;10.124;2022-12-29T11:04:05;4.77;;;0.87;;
18651;SDS011;9455;54.302;10.124;2022-12-29T11:06:37;3.27;;;1.50;;
18651;SDS011;9455;54.302;10.124;2022-12-29T11:09:09;5.03;;;1.30;;
18651;SDS011;9455;54.302;10.124;2022-12-29T11:11:38;9.00;;;1.20;;
18651;SDS011;9455;54.302;10.124;2022-12-29T11:14:10;3.43;;;1.17;;
18651;SDS011;9455;54.302;10.124;2022-12-29T11:16:39;9.00;;;1.10;;
18651;SDS011;9455;54.302;10.124;2022-12-29T11:19:14;5.73;;;1.07;;
18651;SDS011;9455;54.302;10.124;2022-12-29T11:21:46;6.47;;;1.97;;
18651;SDS011;9455;54.302;10.124;2022-12-29T11:24:18;6.20;;;1.10;;
18651;SDS011;9455;54.302;10.124;2022-12-29T11:26:48;15.57;;;1.50;;
18651;SDS011;9455;54.302;10.124;2022-12-29T11:29:22;14.33;;;1.00;;
18651;SDS011;9455;54.302;10.124;2022-12-29T11:31:51;10.60;;;4.33;;
18651;SDS011;9455;54.302;10.124;2022-12-29T11:34:22;3.13;;;1.97;;
18651;SDS011;9455;54.302;10.124;2022-12-29T11:36:51;8.57;;;1.20;;
18651;SDS011;9455;54.302;10.124;2022-12-29T11:39:25;0.93;;;0.70;;
18651;SDS011;9455;54.302;10.124;2022-12-29T11:41:56;6.90;;;1.23;;
18651;SDS011;9455;54.302;10.124;2022-12-29T11:44:23;5.43;;;1.10;;
18651;SDS011;9455;54.302;10.124;2022-12-29T11:46:51;8.63;;;1.63;;
18651;SDS011;9455;54.302;10.124;2022-12-29T11:49:19;7.10;;;0.93;;
18651;SDS011;9455;54.302;10.124;2022-12-29T11:51:49;1.37;;;1.27;;
18651;SDS011;9455;54.302;10.124;2022-12-29T11:54:18;8.60;;;1.83;;
18651;SDS011;9455;54.302;10.124;2022-12-29T11:56:49;4.80;;;1.20;;
18651;SDS011;9455;54.302;10.124;2022-12-29T11:59:24;6.60;;;1.53;;
18651;SDS011;9455;54.302;10.124;2022-12-29T12:04:58;2.77;;;1.17;;
18651;SDS011;9455;54.302;10.124;2022-12-29T12:07:34;5.20;;;1.33;;
18651;SDS011;9455;54.302;10.124;2022-12-29T12:10:05;14.37;;;1.40;;
18651;SDS011;9455;54.302;10.124;2022-12-29T12:12:39;4.17;;;1.30;;
18651;SDS011;9455;54.302;10.124;2022-12-29T12:15:12;1.93;;;1.33;;
18651;SDS011;9455;54.302;10.124;2022-12-29T12:17:44;9.33;;;0.90;;
18651;SDS011;9455;54.302;10.124;2022-12-29T12:20:18;4.90;;;1.03;;
18651;SDS011;9455;54.302;10.124;2022-12-29T12:22:50;13.07;;;4.03;;
18651;SDS011;9455;54.302;10.124;2022-12-29T12:25:25;5.63;;;1.67;;
18651;SDS011;9455;54.302;10.124;2022-12-29T12:27:59;6.80;;;1.23;;
18651;SDS011;9455;54.302;10.124;2022-12-29T12:30:33;9.13;;;1.43;;
18651;SDS011;9455;54.302;10.124;2022-12-29T12:33:04;4.17;;;0.80;;
18651;SDS011;9455;54.302;10.124;2022-12-29T12:35:41;3.93;;;1.40;;
18651;SDS011;9455;54.302;10.124;2022-12-29T12:38:16;9.40;;;1.40;;
18651;SDS011;9455;54.302;10.124;2022-12-29T12:40:56;4.60;;;1.00;;
18651;SDS011;9455;54.302;10.124;2022-12-29T12:43:40;4.10;;;1.20;;
18651;SDS011;9455;54.302;10.124;2022-12-29T12:49:19;25.37;;;4.60;;
18651;SDS011;9455;54.302;10.124;2022-12-29T12:52:03;9.27;;;1.90;;
18651;SDS011;9455;54.302;10.124;2022-12-29T12:54:47;8.33;;;1.73;;
18651;SDS011;9455;54.302;10.124;2022-12-29T12:57:31;12.53;;;3.00;;
18651;SDS011;9455;54.302;10.124;2022-12-29T13:00:08;8.83;;;2.23;;
18651;SDS011;9455;54.302;10.124;2022-12-29T13:02:40;20.63;;;8.80;;
18651;SDS011;9455;54.302;10.124;2022-12-29T13:05:21;16.20;;;5.37;;
18651;SDS011;9455;54.302;10.124;2022-12-29T13:08:07;2.00;;;1.40;;
18651;SDS011;9455;54.302;10.124;2022-12-29T13:10:52;2.87;;;1.37;;
18651;SDS011;9455;54.302;10.124;2022-12-29T13:13:32;5.03;;;1.27;;
18651;SDS011;9455;54.302;10.124;2022-12-29T13:16:17;0.93;;;0.63;;
18651;SDS011;9455;54.302;10.124;2022-12-29T13:18:58;2.13;;;1.00;;
18651;SDS011;9455;54.302;10.124;2022-12-29T13:21:31;10.70;;;1.10;;
18651;SDS011;9455;54.302;10.124;2022-12-29T13:24:12;2.40;;;0.70;;
18651;SDS011;9455;54.302;10.124;2022-12-29T13:26:47;0.70;;;0.70;;
18651;SDS011;9455;54.302;10.124;2022-12-29T13:29:17;4.57;;;1.40;;
18651;SDS011;9455;54.302;10.124;2022-12-29T13:31:50;4.10;;;1.20;;
18651;SDS011;9455;54.302;10.124;2022-12-29T13:34:23;2.47;;;1.43;;
18651;SDS011;9455;54.302;10.124;2022-12-29T13:36:58;7.93;;;2.03;;
18651;SDS011;9455;54.302;10.124;2022-12-29T13:39:30;10.53;;;1.60;;
18651;SDS011;9455;54.302;10.124;2022-12-29T13:41:59;4.93;;;1.03;;
18651;SDS011;9455;54.302;10.124;2022-12-29T13:44:30;4.00;;;1.97;;
18651;SDS011;9455;54.302;10.124;2022-12-29T13:47:00;5.00;;;1.77;;
18651;SDS011;9455;54.302;10.124;2022-12-29T13:49:32;1.80;;;1.37;;
18651;SDS011;9455;54.302;10.124;2022-12-29T13:52:03;8.33;;;4.10;;
18651;SDS011;9455;54.302;10.124;2022-12-29T13:54:42;5.77;;;1.53;;
18651;SDS011;9455;54.302;10.124;2022-12-29T13:57:17;4.27;;;2.87;;
18651;SDS011;9455;54.302;10.124;2022-12-29T13:59:50;1.87;;;0.90;;
18651;SDS011;9455;54.302;10.124;2022-12-29T14:02:24;8.40;;;1.23;;
18651;SDS011;9455;54.302;10.124;2022-12-29T14:04:59;7.73;;;1.43;;
18651;SDS011;9455;54.302;10.124;2022-12-29T14:07:27;8.93;;;1.63;;
18651;SDS011;9455;54.302;10.124;2022-12-29T14:09:56;6.83;;;1.50;;
18651;SDS011;9455;54.302;10.124;2022-12-29T14:15:20;10.37;;;1.80;;
18651;SDS011;9455;54.302;10.124;2022-12-29T14:18:00;2.30;;;1.30;;
18651;SDS011;9455;54.302;10.124;2022-12-29T14:20:30;1.90;;;1.23;;
18651;SDS011;9455;54.302;10.124;2022-12-29T14:22:58;10.67;;;1.17;;
18651;SDS011;9455;54.302;10.124;2022-12-29T14:25:52;4.40;;;1.40;;
18651;SDS011;9455;54.302;10.124;2022-12-29T14:28:22;5.17;;;1.50;;
18651;SDS011;9455;54.302;10.124;2022-12-29T14:30:51;5.87;;;1.60;;
18651;SDS011;9455;54.302;10.124;2022-12-29T14:33:19;9.63;;;1.37;;
18651;SDS011;9455;54.302;10.124;2022-12-29T14:35:47;5.47;;;1.37;;
18651;SDS011;9455;54.302;10.124;2022-12-29T14:38:18;13.20;;;2.10;;
18651;SDS011;9455;54.302;10.124;2022-12-29T14:40:47;7.17;;;1.13;;
18651;SDS011;9455;54.302;10.124;2022-12-29T14:43:19;9.90;;;1.93;;
18651;SDS011;9455;54.302;10.124;2022-12-29T14:45:52;7.70;;;2.00;;
18651;SDS011;9455;54.302;10.124;2022-12-29T14:48:25;11.67;;;1.57;;
18651;SDS011;9455;54.302;10.124;2022-12-29T14:50:57;13.67;;;2.23;;
18651;SDS011;9455;54.302;10.124;2022-12-29T14:53:41;19.03;;;1.70;;
18651;SDS011;9455;54.302;10.124;2022-12-29T14:56:10;12.67;;;1.83;;
18651;SDS011;9455;54.302;10.124;2022-12-29T14:58:41;9.53;;;1.30;;
18651;SDS011;9455;54.302;10.124;2022-12-29T15:01:17;3.53;;;1.33;;
18651;SDS011;9455;54.302;10.124;2022-12-29T15:03:49;7.70;;;1.57;;
18651;SDS011;9455;54.302;10.124;2022-12-29T15:06:17;10.10;;;1.20;;
18651;SDS011;9455;54.302;10.124;2022-12-29T15:08:48;8.80;;;1.70;;
18651;SDS011;9455;54.302;10.124;2022-12-29T15:11:18;9.37;;;2.47;;
18651;SDS011;9455;54.302;10.124;2022-12-29T15:13:48;5.07;;;2.27;;
18651;SDS011;9455;54.302;10.124;2022-12-29T15:16:20;13.30;;;3.87;;
18651;SDS011;9455;54.302;10.124;2022-12-29T15:18:48;13.40;;;2.70;;
18651;SDS011;9455;54.302;10.124;2022-12-29T15:21:15;8.37;;;2.13;;